首页
METAR-TAF:

METAR-TAF

机场 :

Dease Lake, 不列颠哥伦比亚, 加拿大

纬度: 58-25-20N, 经度: 130-01-53W, 海拔: 803米

当前天气观测

该预报发布于1小时和3分钟前的01:00 UTC
静风
温度 9°C
湿度 87%
气压 1009 hPa
能見度: 14.5公里
多云层高于10000英尺
多云层高于12000英尺

METAR: CYDL 220100Z AUTO 00000KT 9SM BKN100 BKN120 09/07 A2981 RMK SLP109

时间: 19:03 (02:03 UTC)

预报

该预报发布于8小时和25分钟前的17:38 UTC
预报有效从21日的 18点(UTC)到 21日的 24点(UTC)
风速3节,风向多变
能見度: 10公里
散云层高于8000英尺
多云层高于11000英尺
短暂存在
从 21日的 18点(UTC)到 21日的 24点(UTC)
能見度: 10公里
散云层高于2000英尺
多云层高于8000英尺
小阵雨

TAF: CYDL 211738Z 2118/2124 VRB03KT P6SM SCT080 BKN110 TEMPO 2118/2124 P6SM -SHRA SCT020 BKN080 RMK FCST BASED ON AUTO OBS. NXT FCST WILL BE ISSUED AT 221245Z

超过4000个机场的气象观测和天气预报(METAR&TAF报告)。

可查询的气象台以黄色和红色小点在地图上表示。

将鼠标移到小点上方,可查看气象台名称。

然后点击查看天气观测和预报。

如需切换地图:点击带黑十字的绿色按钮放大地图;点击带横线的绿色按钮缩小地图;或者点击绿色箭头查看邻近地区的地图。


METAR-TAF: